Time;durP1;ratioP1;P1;durP2;ratioP2;P2;SDS_P1;SDS_P2;PMS_P1;PMS_P2;Temp;Humidity;BMP_temperature;BMP_pressure;BME280_temperature;BME280_humidity;BME280_pressure;Samples;Min_cycle;Max_cycle;Signal;HPM_P1;HPM_P2
2023/05/09 00:03:07;;;;;;;49.92;25.52;;;;;;;14.13;100.00;101740.97;10337888;28;20443;-73
2023/05/09 00:08:08;;;;;;;35.38;23.58;;;;;;;14.23;100.00;101745.22;10320722;28;20102;-73
2023/05/09 00:13:08;;;;;;;33.10;21.83;;;;;;;14.27;100.00;101735.63;10320912;28;20058;-73
2023/05/09 00:18:08;;;;;;;29.80;20.23;;;;;;;14.32;100.00;101733.94;10336947;28;20058;-73
2023/05/09 00:23:09;;;;;;;38.53;22.27;;;;;;;14.34;100.00;101726.41;10337170;28;20051;-73
2023/05/09 00:28:09;;;;;;;27.10;17.85;;;;;;;14.38;100.00;101715.97;10318986;28;20023;-73
2023/05/09 00:33:10;;;;;;;28.38;21.13;;;;;;;14.42;100.00;101706.31;10337425;28;20347;-73
2023/05/09 00:38:10;;;;;;;25.50;20.35;;;;;;;14.41;100.00;101701.94;10318299;28;20034;-73
2023/05/09 00:43:11;;;;;;;27.35;19.92;;;;;;;14.39;100.00;101695.84;10337935;28;20092;-73
2023/05/09 00:48:11;;;;;;;25.88;20.83;;;;;;;14.39;100.00;101688.53;10337975;28;20038;-79
2023/05/09 00:53:12;;;;;;;30.45;18.50;;;;;;;14.43;100.00;101692.50;10287868;28;20453;-80
2023/05/09 00:58:12;;;;;;;32.53;19.40;;;;;;;14.33;100.00;101683.03;10302615;28;20429;-80
2023/05/09 01:03:13;;;;;;;29.90;19.05;;;;;;;14.25;100.00;101675.88;10286711;28;20133;-80
2023/05/09 01:08:20;;;;;;;25.80;17.65;;;;;;;14.20;100.00;101662.03;10286031;28;20555;-79
2023/05/09 01:13:58;;;;;;;37.42;20.27;;;;;;;14.13;100.00;101648.34;10290150;28;20093;-80
2023/05/09 01:19:23;;;;;;;32.53;18.85;;;;;;;14.15;100.00;101648.16;10342472;28;20043;-81
2023/05/09 01:24:47;;;;;;;25.80;16.02;;;;;;;14.13;100.00;101637.47;10319449;28;20481;-81
2023/05/09 01:29:58;;;;;;;24.33;17.75;;;;;;;14.14;100.00;101632.88;10285353;28;20038;-80
2023/05/09 01:35:01;;;;;;;27.02;16.95;;;;;;;14.15;100.00;101629.94;10286885;28;20026;-82
2023/05/09 01:40:07;;;;;;;26.90;16.73;;;;;;;14.14;100.00;101622.00;10284966;28;20061;-80
2023/05/09 01:45:08;;;;;;;18.08;12.88;;;;;;;14.17;100.00;101611.53;10303343;28;20117;-81
2023/05/09 01:50:10;;;;;;;29.23;16.10;;;;;;;14.15;100.00;101599.16;10295200;28;20382;-80
2023/05/09 01:55:11;;;;;;;22.15;12.82;;;;;;;14.07;100.00;101600.19;10286813;28;20030;-80
2023/05/09 02:00:13;;;;;;;19.92;15.05;;;;;;;14.00;100.00;101591.13;10317897;28;20113;-80
2023/05/09 02:05:13;;;;;;;17.13;12.45;;;;;;;13.99;100.00;101594.06;10285431;28;20104;-81
2023/05/09 02:10:14;;;;;;;19.90;15.05;;;;;;;13.90;100.00;101585.22;10300090;28;20050;-80
2023/05/09 02:15:14;;;;;;;23.30;14.27;;;;;;;13.88;100.00;101576.41;10299338;28;20225;-80
2023/05/09 02:20:15;;;;;;;23.13;14.43;;;;;;;13.89;100.00;101580.81;10315788;28;20042;-80
2023/05/09 02:25:15;;;;;;;33.03;16.27;;;;;;;13.87;100.00;101572.00;10300380;28;20038;-81
2023/05/09 02:30:23;;;;;;;17.50;14.45;;;;;;;13.90;100.00;101577.03;10285045;28;20038;-80
2023/05/09 02:35:26;;;;;;;21.70;13.07;;;;;;;13.89;100.00;101567.22;10302173;28;20058;-80
2023/05/09 02:40:27;;;;;;;24.90;14.15;;;;;;;13.91;100.00;101567.81;10284739;28;20026;-81
2023/05/09 02:45:27;;;;;;;15.70;13.45;;;;;;;13.88;100.00;101562.78;10301085;28;20035;-80
2023/05/09 02:50:28;;;;;;;23.80;14.48;;;;;;;13.88;100.00;101554.63;10310444;28;20505;-79
2023/05/09 02:55:30;;;;;;;25.70;14.60;;;;;;;13.89;100.00;101546.25;10296425;28;20038;-80
2023/05/09 03:00:31;;;;;;;20.55;14.98;;;;;;;13.90;100.00;101544.38;10293163;28;20045;-82
2023/05/09 03:05:32;;;;;;;21.95;12.82;;;;;;;13.87;100.00;101542.88;10340992;28;20037;-80
2023/05/09 03:10:34;;;;;;;18.95;13.25;;;;;;;13.90;100.00;101539.75;10290480;28;20527;-80
2023/05/09 03:15:35;;;;;;;23.27;16.55;;;;;;;13.87;100.00;101528.44;10306818;28;20141;-81
2023/05/09 03:20:36;;;;;;;19.88;14.30;;;;;;;13.93;100.00;101514.00;10325303;28;20133;-80
2023/05/09 03:25:36;;;;;;;30.83;15.05;;;;;;;13.92;100.00;101513.19;10314949;28;20149;-81
2023/05/09 03:30:37;;;;;;;22.85;15.82;;;;;;;13.92;100.00;101501.47;10290773;28;20038;-80
2023/05/09 03:35:37;;;;;;;20.00;14.75;;;;;;;13.85;100.00;101503.31;10339832;28;20046;-82
2023/05/09 03:40:39;;;;;;;17.58;13.90;;;;;;;13.88;100.00;101494.72;10322028;28;20355;-80
2023/05/09 03:45:39;;;;;;;24.50;15.07;;;;;;;13.87;100.00;101490.31;10289836;28;20048;-80
2023/05/09 03:50:40;;;;;;;16.73;13.93;;;;;;;13.85;100.00;101479.66;10307430;28;20108;-80
2023/05/09 03:55:41;;;;;;;25.27;14.68;;;;;;;13.88;100.00;101481.09;10299526;28;20398;-81
2023/05/09 04:00:42;;;;;;;21.98;13.93;;;;;;;13.88;100.00;101471.09;10309586;28;20041;-81
2023/05/09 04:05:43;;;;;;;18.15;14.60;;;;;;;13.83;100.00;101470.00;10321975;28;20542;-80
2023/05/09 04:10:44;;;;;;;18.95;15.00;;;;;;;13.86;100.00;101456.81;10304990;28;20030;-80
2023/05/09 04:15:45;;;;;;;24.92;15.52;;;;;;;13.85;100.00;101454.31;10319930;28;20145;-81
2023/05/09 04:20:45;;;;;;;23.45;16.77;;;;;;;13.85;100.00;101459.78;10303738;28;20065;-80
2023/05/09 04:25:46;;;;;;;19.80;15.77;;;;;;;13.75;100.00;101456.56;10289005;28;20042;-82
2023/05/09 04:30:46;;;;;;;20.92;16.25;;;;;;;13.65;100.00;101457.78;10287083;28;20544;-79
2023/05/09 04:35:47;;;;;;;21.67;17.25;;;;;;;13.54;100.00;101457.56;10303744;28;20034;-80
2023/05/09 04:40:48;;;;;;;22.30;14.73;;;;;;;13.49;100.00;101439.09;10303697;28;20489;-78
2023/05/09 04:45:48;;;;;;;21.17;15.32;;;;;;;13.49;100.00;101439.09;10287673;28;20030;-77
2023/05/09 04:50:48;;;;;;;22.65;15.68;;;;;;;13.42;100.00;101421.94;10318703;28;20474;-78
2023/05/09 04:55:50;;;;;;;22.35;15.65;;;;;;;13.47;100.00;101420.28;10320408;28;20050;-80
2023/05/09 05:00:51;;;;;;;0.68;0.68;;;;;;;13.48;100.00;101418.41;10329409;28;20066;-81
2023/05/09 05:05:52;;;;;;;9.75;1.83;;;;;;;13.51;100.00;101414.44;10309813;28;20052;-81
2023/05/09 05:10:52;;;;;;;0.82;0.82;;;;;;;13.57;100.00;101416.34;10322156;28;20046;-82
2023/05/09 05:15:53;;;;;;;0.85;0.85;;;;;;;13.49;100.00;101401.84;10302422;28;20082;-82
2023/05/09 05:20:53;;;;;;;4.95;4.45;;;;;;;13.48;100.00;101399.34;10320732;28;20044;-83
2023/05/09 05:25:54;;;;;;;0.52;0.52;;;;;;;13.47;100.00;101392.25;10301485;28;20030;-82
2023/05/09 05:30:54;;;;;;;3.50;3.30;;;;;;;13.48;100.00;101388.47;10292890;28;20125;-81
2023/05/09 05:35:54;;;;;;;2.05;2.00;;;;;;;13.53;100.00;101391.44;10320858;28;20042;-80
2023/05/09 05:40:55;;;;;;;1.13;1.13;;;;;;;13.58;100.00;101388.06;10336366;28;20370;-79
2023/05/09 05:45:55;;;;;;;1.65;1.63;;;;;;;13.64;100.00;101374.47;10316697;28;20052;-80
2023/05/09 05:50:55;;;;;;;0.47;0.47;;;;;;;13.59;100.00;101379.72;10301315;28;20541;-81
2023/05/09 05:55:57;;;;;;;0.68;0.68;;;;;;;13.59;100.00;101377.00;10300493;28;20027;-85
2023/05/09 06:00:58;;;;;;;0.55;0.55;;;;;;;13.59;100.00;101368.84;10325229;28;20062;-83
2023/05/09 06:06:00;;;;;;;2.35;2.25;;;;;;;13.63;100.00;101356.50;10335495;28;20035;-84
2023/05/09 06:11:02;;;;;;;0.77;0.77;;;;;;;13.59;100.00;101347.06;10320909;28;20113;-82
2023/05/09 06:16:03;;;;;;;2.53;2.30;;;;;;;13.62;100.00;101351.22;10289957;28;20272;-83
2023/05/09 06:21:03;;;;;;;2.15;1.38;;;;;;;13.65;100.00;101351.66;10300941;28;20165;-83
2023/05/09 06:26:05;;;;;;;1.27;1.27;;;;;;;13.58;100.00;101345.38;10307102;28;20030;-84
2023/05/09 06:31:07;;;;;;;1.23;1.23;;;;;;;13.53;100.00;101342.44;10292482;28;20042;-83
2023/05/09 06:36:10;;;;;;;0.55;0.55;;;;;;;13.45;100.00;101332.56;10325527;28;20425;-82
2023/05/09 06:41:11;;;;;;;0.52;0.52;;;;;;;13.40;100.00;101334.22;10308930;28;20129;-83
2023/05/09 06:46:12;;;;;;;2.65;2.45;;;;;;;13.40;100.00;101329.66;10292118;28;20042;-82
2023/05/09 06:51:12;;;;;;;0.80;0.80;;;;;;;13.25;100.00;101323.53;10307516;28;20038;-81
2023/05/09 06:56:15;;;;;;;0.38;0.38;;;;;;;13.26;100.00;101304.28;10308930;28;20496;-83
2023/05/09 07:01:16;;;;;;;0.30;0.30;;;;;;;13.18;100.00;101311.78;10307341;28;20042;-83
2023/05/09 07:06:18;;;;;;;2.58;1.95;;;;;;;13.20;100.00;101305.06;10309628;28;20038;-82
2023/05/09 07:11:19;;;;;;;0.30;0.30;;;;;;;13.26;100.00;101285.25;10310418;28;20034;-83
2023/05/09 07:16:21;;;;;;;1.38;1.38;;;;;;;13.32;100.00;101280.03;10293888;28;20117;-82
2023/05/09 07:21:22;;;;;;;0.30;0.30;;;;;;;13.35;100.00;101271.47;10307865;28;20516;-82
2023/05/09 07:26:24;;;;;;;0.38;0.38;;;;;;;13.34;100.00;101265.19;10323127;28;20034;-81
2023/05/09 07:31:25;;;;;;;1.05;1.05;;;;;;;13.42;100.00;101258.69;10323350;28;20042;-82
2023/05/09 07:36:26;;;;;;;2.08;1.90;;;;;;;13.44;100.00;101257.47;10306745;28;20454;-82
2023/05/09 07:41:27;;;;;;;0.30;0.30;;;;;;;13.49;100.00;101251.38;10308837;28;20058;-80
2023/05/09 07:46:27;;;;;;;1.00;1.00;;;;;;;13.55;100.00;101239.66;10289478;28;20047;-82
2023/05/09 07:51:28;;;;;;;0.65;0.65;;;;;;;13.57;100.00;101234.88;10308480;28;20041;-82
2023/05/09 07:56:28;;;;;;;0.80;0.80;;;;;;;13.61;100.00;101230.66;10307944;28;20040;-83
2023/05/09 08:01:29;;;;;;;1.08;1.08;;;;;;;13.61;100.00;101213.50;10324474;28;20085;-84
2023/05/09 08:06:32;;;;;;;1.48;1.48;;;;;;;13.62;100.00;101213.28;10330141;28;20031;-83
2023/05/09 08:11:33;;;;;;;0.47;0.47;;;;;;;13.63;100.00;101204.09;10322855;28;20093;-83
2023/05/09 08:16:33;;;;;;;0.80;0.80;;;;;;;13.71;100.00;101200.31;10306075;28;20054;-84
2023/05/09 08:21:34;;;;;;;0.82;0.82;;;;;;;13.88;100.00;101193.38;10331678;28;20038;-83
2023/05/09 08:26:35;;;;;;;1.25;1.25;;;;;;;14.03;100.00;101184.97;10312951;28;20051;-83
2023/05/09 08:31:36;;;;;;;0.52;0.52;;;;;;;13.94;100.00;101186.22;10297896;28;20046;-83
2023/05/09 08:36:45;;;;;;;0.90;0.90;;;;;;;14.02;100.00;101175.13;10324820;28;20042;-84
2023/05/09 08:41:46;;;;;;;1.17;1.17;;;;;;;13.91;100.00;101167.59;10308353;28;20125;-83
2023/05/09 08:46:46;;;;;;;0.70;0.70;;;;;;;13.87;100.00;101175.34;10287663;28;20045;-84
2023/05/09 08:51:47;;;;;;;0.73;0.73;;;;;;;13.83;100.00;101167.84;10308023;28;20034;-83
2023/05/09 08:56:49;;;;;;;2.60;2.38;;;;;;;13.94;100.00;101164.47;10307529;28;20184;-83
2023/05/09 09:01:49;;;;;;;0.75;0.75;;;;;;;13.99;100.00;101167.38;10323383;28;20041;-83
2023/05/09 09:06:50;;;;;;;0.80;0.80;;;;;;;13.91;100.00;101151.28;10288632;28;20034;-82
2023/05/09 09:11:52;;;;;;;0.40;0.40;;;;;;;13.93;100.00;101158.19;10317793;28;20026;-83
2023/05/09 09:16:53;;;;;;;1.05;1.05;;;;;;;13.92;100.00;101147.53;10288068;28;20059;-83
2023/05/09 09:21:54;;;;;;;0.63;0.63;;;;;;;13.88;100.00;101144.38;10289601;28;20042;-83
2023/05/09 09:26:55;;;;;;;1.45;1.45;;;;;;;13.93;100.00;101141.00;10302894;28;20034;-83
2023/05/09 09:31:55;;;;;;;1.58;1.50;;;;;;;13.93;100.00;101144.56;10301352;28;20034;-83
2023/05/09 09:36:56;;;;;;;0.32;0.32;;;;;;;14.00;100.00;101135.53;10301680;28;20120;-83
2023/05/09 09:42:00;;;;;;;0.70;0.70;;;;;;;13.95;100.00;101128.88;10318968;28;20047;-84
2023/05/09 09:47:02;;;;;;;0.88;0.88;;;;;;;13.90;100.00;101131.38;10288224;28;20093;-83
2023/05/09 09:52:03;;;;;;;0.40;0.40;;;;;;;14.01;100.00;101138.06;10322025;28;20130;-83
2023/05/09 09:57:03;;;;;;;0.45;0.45;;;;;;;13.99;100.00;101128.44;10302627;28;20153;-82
2023/05/09 10:02:06;;;;;;;1.98;1.75;;;;;;;14.00;100.00;101121.94;10287760;28;20038;-83
2023/05/09 10:07:09;;;;;;;2.40;2.30;;;;;;;13.98;100.00;101124.06;10300744;28;20034;-84
2023/05/09 10:12:14;;;;;;;1.25;1.25;;;;;;;14.06;100.00;101112.91;10336476;28;20033;-82
2023/05/09 10:17:14;;;;;;;0.63;0.63;;;;;;;14.10;100.00;101108.69;10303177;28;20140;-83
2023/05/09 10:22:16;;;;;;;0.63;0.63;;;;;;;14.12;100.00;101109.31;10306778;28;20053;-82
2023/05/09 10:27:21;;;;;;;2.15;2.05;;;;;;;14.08;100.00;101106.19;10339524;28;20065;-84
2023/05/09 10:32:41;;;;;;;0.68;0.68;;;;;;;14.13;100.00;101098.19;10334839;28;20033;-83
2023/05/09 10:37:44;;;;;;;0.80;0.80;;;;;;;14.12;100.00;101095.72;10322104;28;20046;-83
2023/05/09 10:42:44;;;;;;;0.65;0.65;;;;;;;14.22;100.00;101081.63;10283822;28;20085;-83
2023/05/09 10:47:46;;;;;;;0.82;0.82;;;;;;;14.21;100.00;101079.97;10315877;28;20077;-84
2023/05/09 10:53:06;;;;;;;0.68;0.68;;;;;;;14.26;100.00;101075.50;10299720;28;20038;-83
2023/05/09 10:58:20;;;;;;;0.60;0.60;;;;;;;14.17;100.00;101071.38;10316819;28;20034;-83
2023/05/09 11:03:20;;;;;;;0.75;0.75;;;;;;;14.19;100.00;101064.66;10315648;28;20034;-84
2023/05/09 11:08:24;;;;;;;1.67;1.58;;;;;;;14.33;100.00;101068.16;10299143;28;20034;-85
2023/05/09 11:13:29;;;;;;;0.80;0.80;;;;;;;14.34;100.00;101058.09;10321598;28;20113;-83
2023/05/09 11:18:31;;;;;;;1.33;1.33;;;;;;;14.33;100.00;101051.81;10289602;28;20090;-83
2023/05/09 11:23:38;;;;;;;2.40;2.30;;;;;;;14.30;100.00;101046.81;10310035;28;20056;-83
2023/05/09 11:28:39;;;;;;;0.32;0.32;;;;;;;14.36;100.00;101047.81;10344839;28;20128;-83
2023/05/09 11:33:53;;;;;;;0.38;0.38;;;;;;;14.51;100.00;101045.63;10290897;28;20038;-84
2023/05/09 11:39:13;;;;;;;0.45;0.45;;;;;;;14.49;100.00;101038.72;10306450;28;20038;-83
2023/05/09 11:44:40;;;;;;;1.23;1.23;;;;;;;14.48;100.00;101035.16;10289593;28;20048;-84
2023/05/09 11:49:51;;;;;;;0.30;0.30;;;;;;;14.36;100.00;101032.31;10320970;28;20098;-84
2023/05/09 11:54:53;;;;;;;0.60;0.60;;;;;;;14.35;100.00;101027.06;10309826;28;20445;-84
2023/05/09 11:59:54;;;;;;;0.40;0.40;;;;;;;14.35;100.00;101014.28;10309414;28;20453;-84
2023/05/09 12:04:55;;;;;;;0.40;0.40;;;;;;;14.47;100.00;101011.69;10305918;28;20042;-84
2023/05/09 12:10:07;;;;;;;0.43;0.43;;;;;;;14.33;100.00;101012.84;10289144;28;20066;-84
2023/05/09 12:15:12;;;;;;;0.40;0.40;;;;;;;14.38;100.00;101015.72;10319946;28;20045;-84
2023/05/09 12:20:14;;;;;;;0.40;0.40;;;;;;;14.39;100.00;101003.78;10292710;28;20486;-84
2023/05/09 12:25:16;;;;;;;0.32;0.32;;;;;;;14.42;100.00;100998.72;10285601;28;20092;-83
2023/05/09 12:30:27;;;;;;;0.73;0.73;;;;;;;14.31;100.00;100998.59;10284678;28;20039;-83
2023/05/09 12:35:27;;;;;;;0.50;0.50;;;;;;;14.28;100.00;100997.16;10281012;28;20042;-85
2023/05/09 12:40:28;;;;;;;0.70;0.70;;;;;;;14.19;100.00;100998.44;10295073;28;20135;-84
2023/05/09 12:45:31;;;;;;;0.40;0.40;;;;;;;14.28;100.00;100996.31;10278607;28;20038;-84
2023/05/09 12:50:35;;;;;;;0.60;0.60;;;;;;;14.27;100.00;100990.03;10262769;28;20030;-85
2023/05/09 12:55:41;;;;;;;0.80;0.80;;;;;;;14.27;100.00;100984.59;10263203;28;20471;-84
2023/05/09 13:00:45;;;;;;;0.40;0.40;;;;;;;14.39;100.00;100987.44;10295757;28;20434;-83
2023/05/09 13:06:05;;;;;;;0.70;0.70;;;;;;;14.30;100.00;100981.44;10294988;28;20391;-85
2023/05/09 13:11:26;;;;;;;0.30;0.30;;;;;;;14.42;100.00;100979.66;10294937;28;20038;-85
2023/05/09 13:16:52;;;;;;;0.40;0.40;;;;;;;14.41;100.00;100968.97;10296245;28;20106;-84
2023/05/09 13:21:54;;;;;;;0.68;0.68;;;;;;;14.48;100.00;100968.91;10317172;28;20505;-85
2023/05/09 13:26:54;;;;;;;0.52;0.52;;;;;;;14.42;100.00;100965.19;10319478;28;20046;-84
2023/05/09 13:32:06;;;;;;;1.50;1.48;;;;;;;14.39;100.00;100962.94;10330550;28;20062;-84
2023/05/09 13:37:06;;;;;;;1.05;0.95;;;;;;;14.48;100.00;100964.31;10302759;28;20042;-84
2023/05/09 13:42:09;;;;;;;2.05;2.05;;;;;;;14.56;100.00;100955.06;10301086;28;20054;-84
2023/05/09 13:47:12;;;;;;;0.95;0.95;;;;;;;14.42;100.00;100965.19;10301337;28;20042;-84
2023/05/09 13:52:15;;;;;;;0.40;0.40;;;;;;;14.37;100.00;100956.84;10283386;28;20072;-85
2023/05/09 13:57:34;;;;;;;1.05;1.05;;;;;;;14.49;100.00;100965.16;10285557;28;20066;-85
2023/05/09 14:02:35;;;;;;;0.95;0.95;;;;;;;14.47;100.00;100954.47;10329819;28;20486;-83
2023/05/09 14:07:38;;;;;;;0.30;0.30;;;;;;;14.45;100.00;100947.56;10301613;28;20038;-83
2023/05/09 14:12:42;;;;;;;0.77;0.77;;;;;;;14.40;100.00;100946.34;10316477;28;20042;-84
2023/05/09 14:18:22;;;;;;;0.70;0.70;;;;;;;14.32;100.00;100938.44;10301006;28;20188;-85
2023/05/09 14:23:32;;;;;;;0.50;0.50;;;;;;;14.45;100.00;100936.66;10330787;28;20050;-84
2023/05/09 14:28:52;;;;;;;0.25;0.25;;;;;;;14.50;100.00;100928.66;10300617;28;20062;-84
2023/05/09 14:33:56;;;;;;;0.40;0.40;;;;;;;14.40;100.00;100918.28;10345255;28;20050;-85
2023/05/09 14:38:58;;;;;;;0.38;0.38;;;;;;;14.31;100.00;100922.31;10284064;28;20042;-83
2023/05/09 14:44:16;;;;;;;0.32;0.32;;;;;;;14.19;100.00;100917.56;10284103;28;20041;-84
2023/05/09 14:49:17;;;;;;;1.00;0.82;;;;;;;14.41;100.00;100917.22;10309805;28;20037;-84
2023/05/09 14:54:18;;;;;;;0.75;0.75;;;;;;;14.55;100.00;100920.66;10309207;28;20438;-85
2023/05/09 14:59:26;;;;;;;0.65;0.65;;;;;;;14.60;100.00;100905.31;10309644;28;20112;-84
2023/05/09 15:04:42;;;;;;;0.70;0.70;;;;;;;14.57;100.00;100897.59;10309756;28;20093;-84
2023/05/09 15:10:13;;;;;;;0.50;0.50;;;;;;;14.49;100.00;100897.88;10345426;28;20534;-84
2023/05/09 15:15:34;;;;;;;0.98;0.98;;;;;;;14.48;100.00;100889.91;10341022;28;20035;-84
2023/05/09 15:20:46;;;;;;;1.45;1.15;;;;;;;14.55;100.00;100886.09;10323510;28;20069;-84
2023/05/09 15:26:27;;;;;;;0.45;0.45;;;;;;;14.74;100.00;100886.13;10323470;28;20374;-83
2023/05/09 15:31:57;;;;;;;0.30;0.30;;;;;;;14.52;100.00;100900.19;10320807;28;20470;-84
2023/05/09 15:36:58;;;;;;;0.40;0.40;;;;;;;14.44;100.00;100894.97;10334219;28;20121;-85
2023/05/09 15:42:03;;;;;;;0.40;0.40;;;;;;;14.37;100.00;100900.47;10307118;28;20078;-85
2023/05/09 15:47:24;;;;;;;0.50;0.50;;;;;;;14.23;100.00;100895.34;10306811;28;20044;-84
2023/05/09 15:52:26;;;;;;;2.33;1.67;;;;;;;14.07;100.00;100897.59;10310911;28;20470;-84
2023/05/09 15:57:27;;;;;;;7.57;1.88;;;;;;;13.89;100.00;100898.31;10339157;28;20058;-83
2023/05/09 16:02:28;;;;;;;4.57;1.65;;;;;;;13.83;100.00;100895.66;10304581;28;20057;-84
2023/05/09 16:07:42;;;;;;;0.70;0.70;;;;;;;13.87;100.00;100892.25;10313998;28;20053;-84
2023/05/09 16:12:44;;;;;;;0.40;0.40;;;;;;;13.84;100.00;100897.31;10324957;28;20061;-84
2023/05/09 16:18:14;;;;;;;0.30;0.30;;;;;;;13.74;100.00;100889.63;10320670;28;20355;-84
2023/05/09 16:23:16;;;;;;;1.08;1.08;;;;;;;13.85;100.00;100890.81;10338151;28;20051;-85
2023/05/09 16:28:23;;;;;;;0.30;0.30;;;;;;;13.98;100.00;100888.00;10320723;28;20533;-84
2023/05/09 16:33:24;;;;;;;0.40;0.40;;;;;;;14.10;100.00;100886.25;10321672;28;20034;-84
2023/05/09 16:38:25;;;;;;;0.30;0.30;;;;;;;14.13;100.00;100879.50;10310085;28;20030;-84
2023/05/09 16:43:33;;;;;;;0.63;0.63;;;;;;;14.09;100.00;100878.28;10311697;28;20050;-84
2023/05/09 16:48:34;;;;;;;0.73;0.73;;;;;;;14.07;100.00;100875.81;10307476;28;20142;-84
2023/05/09 16:53:35;;;;;;;0.95;0.95;;;;;;;14.14;100.00;100868.41;10320550;28;20054;-85
2023/05/09 16:58:45;;;;;;;0.30;0.30;;;;;;;14.03;100.00;100869.09;10325094;28;20054;-84
2023/05/09 17:03:49;;;;;;;0.30;0.30;;;;;;;13.87;100.00;100865.03;10306384;28;20066;-84
2023/05/09 17:08:50;;;;;;;0.60;0.60;;;;;;;13.86;100.00;100862.53;10288090;28;20046;-84
2023/05/09 17:13:50;;;;;;;0.30;0.30;;;;;;;13.81;100.00;100867.81;10286528;28;20031;-85
2023/05/09 17:18:54;;;;;;;0.70;0.70;;;;;;;13.78;100.00;100862.78;10303794;28;20066;-83
2023/05/09 17:24:01;;;;;;;0.35;0.35;;;;;;;13.72;100.00;100859.91;10327806;28;20509;-84
2023/05/09 17:29:02;;;;;;;0.30;0.30;;;;;;;13.61;100.00;100866.03;10321125;28;20406;-85
2023/05/09 17:34:04;;;;;;;0.55;0.55;;;;;;;13.55;100.00;100858.75;10304987;28;20037;-84
2023/05/09 17:39:27;;;;;;;0.63;0.63;;;;;;;13.48;100.00;100861.50;10341550;28;20026;-83
2023/05/09 17:44:28;;;;;;;0.35;0.35;;;;;;;13.43;100.00;100860.50;10313539;28;20034;-84
2023/05/09 17:49:29;;;;;;;0.30;0.30;;;;;;;13.36;100.00;100860.53;10328109;28;20038;-85
2023/05/09 17:54:29;;;;;;;0.35;0.35;;;;;;;13.36;100.00;100870.56;10299168;28;20035;-84
2023/05/09 17:59:31;;;;;;;0.35;0.35;;;;;;;13.31;100.00;100864.97;10330659;28;20054;-85
2023/05/09 18:04:33;;;;;;;0.25;0.25;;;;;;;13.28;100.00;100870.84;10331591;28;20038;-84
2023/05/09 18:09:34;;;;;;;0.40;0.40;;;;;;;13.33;100.00;100876.44;10304414;28;20105;-84
2023/05/09 18:14:36;;;;;;;0.45;0.45;;;;;;;13.32;100.00;100872.06;10312380;28;20042;-84
2023/05/09 18:19:39;;;;;;;0.52;0.52;;;;;;;13.36;100.00;100873.28;10320716;28;20438;-83
2023/05/09 18:24:40;;;;;;;0.75;0.75;;;;;;;13.39;100.00;100867.41;10315903;28;20137;-83
2023/05/09 18:29:41;;;;;;;1.23;0.90;;;;;;;13.41;100.00;100865.31;10332402;28;20038;-85
2023/05/09 18:34:43;;;;;;;1.02;1.02;;;;;;;13.55;100.00;100866.09;10330709;28;20052;-84
2023/05/09 18:39:43;;;;;;;0.40;0.40;;;;;;;13.61;100.00;100873.38;10324202;28;20034;-82
2023/05/09 18:44:44;;;;;;;0.40;0.40;;;;;;;13.67;100.00;100869.78;10325444;28;20041;-84
2023/05/09 18:49:46;;;;;;;0.47;0.47;;;;;;;13.70;100.00;100867.44;10310804;28;20092;-81
2023/05/09 18:54:46;;;;;;;1.52;1.48;;;;;;;13.66;100.00;100868.94;10322928;28;20392;-85
2023/05/09 18:59:50;;;;;;;0.40;0.40;;;;;;;13.65;100.00;100871.88;10291311;28;20043;-83
2023/05/09 19:04:51;;;;;;;1.85;1.75;;;;;;;13.63;100.00;100866.66;10343733;28;20035;-84
2023/05/09 19:09:51;;;;;;;0.82;0.82;;;;;;;13.52;100.00;100864.63;10332532;28;20081;-81
2023/05/09 19:14:52;;;;;;;3.20;1.73;;;;;;;13.44;100.00;100873.88;10306971;28;20096;-81
2023/05/09 19:19:52;;;;;;;0.90;0.90;;;;;;;13.42;100.00;100883.31;10327968;28;20086;-84
2023/05/09 19:24:53;;;;;;;0.63;0.63;;;;;;;13.40;100.00;100874.53;10344428;28;20437;-84
2023/05/09 19:29:54;;;;;;;2.53;2.42;;;;;;;13.33;100.00;100885.44;10307248;28;20050;-82
2023/05/09 19:34:54;;;;;;;0.60;0.60;;;;;;;13.30;100.00;100891.31;10305471;28;20042;-81
2023/05/09 19:39:54;;;;;;;0.70;0.70;;;;;;;13.32;100.00;100885.66;10320622;28;20114;-81
2023/05/09 19:44:56;;;;;;;0.30;0.30;;;;;;;13.29;100.00;100880.66;10338764;28;20130;-80
2023/05/09 19:49:57;;;;;;;1.35;1.30;;;;;;;13.24;100.00;100889.41;10307494;28;20045;-81
2023/05/09 19:54:57;;;;;;;1.67;1.58;;;;;;;13.23;100.00;100890.47;10325431;28;20038;-81
2023/05/09 19:59:58;;;;;;;1.45;1.45;;;;;;;13.22;100.00;100902.41;10322381;28;20038;-81
2023/05/09 20:04:59;;;;;;;0.60;0.60;;;;;;;13.23;100.00;100904.91;10320357;28;20042;-81
2023/05/09 20:09:59;;;;;;;0.75;0.75;;;;;;;13.21;100.00;100903.47;10304189;28;20065;-81
2023/05/09 20:15:00;;;;;;;0.93;0.93;;;;;;;13.21;100.00;100900.75;10320090;28;20544;-80
2023/05/09 20:20:00;;;;;;;1.05;1.05;;;;;;;13.20;100.00;100899.88;10303619;28;20482;-80
2023/05/09 20:25:00;;;;;;;1.00;1.00;;;;;;;13.19;100.00;100903.66;10342796;28;20133;-81
2023/05/09 20:30:02;;;;;;;0.40;0.40;;;;;;;13.23;100.00;100906.78;10320166;28;20362;-81
2023/05/09 20:35:03;;;;;;;0.70;0.70;;;;;;;13.24;100.00;100900.28;10320564;28;20073;-80
2023/05/09 20:40:10;;;;;;;5.35;2.00;;;;;;;13.23;100.00;100902.19;10304093;28;20081;-80
2023/05/09 20:45:11;;;;;;;1.83;1.83;;;;;;;13.19;100.00;100890.06;10336245;28;20039;-80
2023/05/09 20:50:13;;;;;;;1.27;1.27;;;;;;;13.11;100.00;100886.75;10318067;28;20038;-79
2023/05/09 20:55:14;;;;;;;2.45;2.22;;;;;;;13.02;100.00;100889.72;10304244;28;20181;-80
2023/05/09 21:00:15;;;;;;;2.50;2.40;;;;;;;12.87;100.00;100885.56;10323267;28;20049;-83
2023/05/09 21:05:15;;;;;;;1.33;1.33;;;;;;;12.72;100.00;100880.38;10337729;28;20129;-80
2023/05/09 21:10:16;;;;;;;2.03;2.03;;;;;;;12.61;100.00;100884.59;10317975;28;20042;-80
2023/05/09 21:15:16;;;;;;;1.80;1.70;;;;;;;12.55;100.00;100880.00;10302689;28;20031;-80
2023/05/09 21:20:17;;;;;;;0.40;0.40;;;;;;;12.46;100.00;100873.94;10302806;28;20512;-80
2023/05/09 21:25:17;;;;;;;2.58;2.15;;;;;;;12.34;100.00;100865.59;10301396;28;20050;-80
2023/05/09 21:30:19;;;;;;;1.83;1.73;;;;;;;12.19;100.00;100858.69;10317800;28;20042;-80
2023/05/09 21:35:19;;;;;;;2.00;1.98;;;;;;;12.14;100.00;100858.50;10334712;28;20038;-82
2023/05/09 21:40:20;;;;;;;1.35;1.35;;;;;;;12.01;100.00;100856.63;10334531;28;20496;-82
2023/05/09 21:45:20;;;;;;;2.00;1.95;;;;;;;11.88;100.00;100851.19;10285310;28;20074;-82
2023/05/09 21:50:21;;;;;;;3.33;3.22;;;;;;;11.79;100.00;100854.06;10317324;28;20053;-81
2023/05/09 21:55:21;;;;;;;0.73;0.73;;;;;;;11.66;100.00;100851.31;10315839;28;20038;-81
2023/05/09 22:00:23;;;;;;;0.98;0.98;;;;;;;11.62;100.00;100850.06;10319817;28;20061;-81
2023/05/09 22:05:24;;;;;;;3.08;2.08;;;;;;;11.50;100.00;100852.53;10321787;28;20062;-81
2023/05/09 22:10:24;;;;;;;7.38;2.90;;;;;;;11.38;100.00;100849.59;10316758;28;20184;-82
2023/05/09 22:15:26;;;;;;;1.75;1.58;;;;;;;11.44;100.00;100847.09;10300072;28;20061;-81
2023/05/09 22:20:28;;;;;;;0.35;0.35;;;;;;;11.36;100.00;100846.25;10317084;28;20069;-81
2023/05/09 22:25:28;;;;;;;0.40;0.40;;;;;;;11.27;100.00;100842.06;10284917;28;20073;-81
2023/05/09 22:30:30;;;;;;;0.45;0.45;;;;;;;11.17;100.00;100839.72;10332974;28;20070;-81
2023/05/09 22:35:31;;;;;;;0.50;0.50;;;;;;;11.11;100.00;100837.00;10308148;28;20436;-81
2023/05/09 22:40:33;;;;;;;0.82;0.82;;;;;;;11.05;100.00;100849.47;10333830;28;20035;-81
2023/05/09 22:45:33;;;;;;;0.75;0.75;;;;;;;11.03;100.00;100851.53;10317062;28;20147;-81
2023/05/09 22:50:34;;;;;;;1.30;1.30;;;;;;;11.00;100.00;100857.34;10300210;28;20529;-81
2023/05/09 22:55:35;;;;;;;5.47;1.23;;;;;;;11.11;100.00;100854.09;10332242;28;20033;-81